sensor_id;sensor_type;location;lat;lon;timestamp;P1;durP1;ratioP1;P2;durP2;ratioP2
6388;SDS011;3227;42.654;23.360;2023-06-01T00:02:15;16.40;;;6.63;;
6388;SDS011;3227;42.654;23.360;2023-06-01T00:04:46;13.37;;;6.83;;
6388;SDS011;3227;42.654;23.360;2023-06-01T00:07:16;12.43;;;7.00;;
6388;SDS011;3227;42.654;23.360;2023-06-01T00:09:43;11.40;;;6.77;;
6388;SDS011;3227;42.654;23.360;2023-06-01T00:12:10;14.10;;;6.50;;
6388;SDS011;3227;42.654;23.360;2023-06-01T00:14:37;11.93;;;7.23;;
6388;SDS011;3227;42.654;23.360;2023-06-01T00:17:03;10.70;;;6.40;;
6388;SDS011;3227;42.654;23.360;2023-06-01T00:19:31;12.47;;;6.77;;
6388;SDS011;3227;42.654;23.360;2023-06-01T00:21:57;13.17;;;6.50;;
6388;SDS011;3227;42.654;23.360;2023-06-01T00:24:26;13.77;;;7.00;;
6388;SDS011;3227;42.654;23.360;2023-06-01T00:26:52;11.20;;;7.13;;
6388;SDS011;3227;42.654;23.360;2023-06-01T00:29:19;9.70;;;6.63;;
6388;SDS011;3227;42.654;23.360;2023-06-01T00:31:47;12.07;;;6.73;;
6388;SDS011;3227;42.654;23.360;2023-06-01T00:34:14;9.87;;;6.30;;
6388;SDS011;3227;42.654;23.360;2023-06-01T00:36:41;11.43;;;7.30;;
6388;SDS011;3227;42.654;23.360;2023-06-01T00:39:08;12.70;;;6.80;;
6388;SDS011;3227;42.654;23.360;2023-06-01T00:41:36;11.10;;;6.53;;
6388;SDS011;3227;42.654;23.360;2023-06-01T00:44:03;12.13;;;6.80;;
6388;SDS011;3227;42.654;23.360;2023-06-01T00:46:30;11.70;;;6.30;;
6388;SDS011;3227;42.654;23.360;2023-06-01T00:48:57;17.60;;;7.03;;
6388;SDS011;3227;42.654;23.360;2023-06-01T00:51:24;15.30;;;6.90;;
6388;SDS011;3227;42.654;23.360;2023-06-01T00:53:52;12.30;;;6.60;;
6388;SDS011;3227;42.654;23.360;2023-06-01T00:56:19;12.83;;;6.73;;
6388;SDS011;3227;42.654;23.360;2023-06-01T00:58:47;11.13;;;6.63;;
6388;SDS011;3227;42.654;23.360;2023-06-01T01:01:14;13.23;;;6.97;;
6388;SDS011;3227;42.654;23.360;2023-06-01T01:03:46;13.63;;;7.30;;
6388;SDS011;3227;42.654;23.360;2023-06-01T01:06:17;10.63;;;6.67;;
6388;SDS011;3227;42.654;23.360;2023-06-01T01:08:52;11.70;;;7.10;;
6388;SDS011;3227;42.654;23.360;2023-06-01T01:11:32;13.57;;;6.73;;
6388;SDS011;3227;42.654;23.360;2023-06-01T01:14:03;11.63;;;6.77;;
6388;SDS011;3227;42.654;23.360;2023-06-01T01:16:38;11.17;;;7.20;;
6388;SDS011;3227;42.654;23.360;2023-06-01T01:19:11;13.83;;;6.40;;
6388;SDS011;3227;42.654;23.360;2023-06-01T01:21:59;12.37;;;6.07;;
6388;SDS011;3227;42.654;23.360;2023-06-01T01:24:35;11.67;;;6.20;;
6388;SDS011;3227;42.654;23.360;2023-06-01T01:27:14;8.80;;;6.20;;
6388;SDS011;3227;42.654;23.360;2023-06-01T01:29:52;9.63;;;5.70;;
6388;SDS011;3227;42.654;23.360;2023-06-01T01:32:21;10.17;;;6.10;;
6388;SDS011;3227;42.654;23.360;2023-06-01T01:34:49;11.13;;;6.03;;
6388;SDS011;3227;42.654;23.360;2023-06-01T01:37:19;10.27;;;6.07;;
6388;SDS011;3227;42.654;23.360;2023-06-01T01:39:48;10.83;;;6.33;;
6388;SDS011;3227;42.654;23.360;2023-06-01T01:42:15;15.60;;;6.57;;
6388;SDS011;3227;42.654;23.360;2023-06-01T01:44:41;11.50;;;6.33;;
6388;SDS011;3227;42.654;23.360;2023-06-01T01:47:11;12.40;;;5.93;;
6388;SDS011;3227;42.654;23.360;2023-06-01T01:49:46;11.20;;;6.60;;
6388;SDS011;3227;42.654;23.360;2023-06-01T01:52:21;12.63;;;7.20;;
6388;SDS011;3227;42.654;23.360;2023-06-01T01:54:51;11.20;;;7.30;;
6388;SDS011;3227;42.654;23.360;2023-06-01T01:57:19;11.73;;;6.87;;
6388;SDS011;3227;42.654;23.360;2023-06-01T01:59:48;12.03;;;6.73;;
6388;SDS011;3227;42.654;23.360;2023-06-01T02:02:17;12.93;;;7.17;;
6388;SDS011;3227;42.654;23.360;2023-06-01T02:04:44;15.37;;;6.40;;
6388;SDS011;3227;42.654;23.360;2023-06-01T02:07:12;14.20;;;6.70;;
6388;SDS011;3227;42.654;23.360;2023-06-01T02:09:38;12.20;;;7.33;;
6388;SDS011;3227;42.654;23.360;2023-06-01T02:12:07;12.83;;;7.93;;
6388;SDS011;3227;42.654;23.360;2023-06-01T02:14:34;12.90;;;7.43;;
6388;SDS011;3227;42.654;23.360;2023-06-01T02:17:01;14.93;;;7.50;;
6388;SDS011;3227;42.654;23.360;2023-06-01T02:19:29;13.57;;;7.10;;
6388;SDS011;3227;42.654;23.360;2023-06-01T02:21:56;13.17;;;8.20;;
6388;SDS011;3227;42.654;23.360;2023-06-01T02:24:23;13.87;;;8.10;;
6388;SDS011;3227;42.654;23.360;2023-06-01T02:26:50;16.87;;;8.13;;
6388;SDS011;3227;42.654;23.360;2023-06-01T02:29:18;15.97;;;8.97;;
6388;SDS011;3227;42.654;23.360;2023-06-01T02:31:47;18.07;;;8.70;;
6388;SDS011;3227;42.654;23.360;2023-06-01T02:34:14;14.07;;;8.53;;
6388;SDS011;3227;42.654;23.360;2023-06-01T02:36:42;16.80;;;9.20;;
6388;SDS011;3227;42.654;23.360;2023-06-01T02:39:09;20.57;;;8.93;;
6388;SDS011;3227;42.654;23.360;2023-06-01T02:41:36;15.30;;;8.50;;
6388;SDS011;3227;42.654;23.360;2023-06-01T02:44:03;14.03;;;8.23;;
6388;SDS011;3227;42.654;23.360;2023-06-01T02:46:30;15.57;;;9.37;;
6388;SDS011;3227;42.654;23.360;2023-06-01T02:48:57;13.37;;;9.13;;
6388;SDS011;3227;42.654;23.360;2023-06-01T02:51:24;14.77;;;9.77;;
6388;SDS011;3227;42.654;23.360;2023-06-01T02:53:52;17.00;;;9.90;;
6388;SDS011;3227;42.654;23.360;2023-06-01T02:56:19;15.53;;;10.07;;
6388;SDS011;3227;42.654;23.360;2023-06-01T02:58:46;15.77;;;10.17;;
6388;SDS011;3227;42.654;23.360;2023-06-01T03:01:13;18.90;;;10.60;;
6388;SDS011;3227;42.654;23.360;2023-06-01T03:03:40;18.60;;;10.60;;
6388;SDS011;3227;42.654;23.360;2023-06-01T03:06:07;17.00;;;11.03;;
6388;SDS011;3227;42.654;23.360;2023-06-01T03:08:34;18.53;;;10.03;;
6388;SDS011;3227;42.654;23.360;2023-06-01T03:11:03;23.33;;;10.10;;
6388;SDS011;3227;42.654;23.360;2023-06-01T03:13:30;18.93;;;10.07;;
6388;SDS011;3227;42.654;23.360;2023-06-01T03:15:56;21.03;;;10.17;;
6388;SDS011;3227;42.654;23.360;2023-06-01T03:18:23;19.37;;;10.50;;
6388;SDS011;3227;42.654;23.360;2023-06-01T03:20:50;22.80;;;10.13;;
6388;SDS011;3227;42.654;23.360;2023-06-01T03:23:17;17.27;;;9.80;;
6388;SDS011;3227;42.654;23.360;2023-06-01T03:25:44;16.70;;;9.70;;
6388;SDS011;3227;42.654;23.360;2023-06-01T03:28:12;15.57;;;9.03;;
6388;SDS011;3227;42.654;23.360;2023-06-01T03:30:39;17.43;;;9.67;;
6388;SDS011;3227;42.654;23.360;2023-06-01T03:33:07;14.73;;;10.10;;
6388;SDS011;3227;42.654;23.360;2023-06-01T03:35:34;13.83;;;8.17;;
6388;SDS011;3227;42.654;23.360;2023-06-01T03:38:01;14.40;;;7.43;;
6388;SDS011;3227;42.654;23.360;2023-06-01T03:40:27;16.15;;;7.53;;
6388;SDS011;3227;42.654;23.360;2023-06-01T03:42:54;17.80;;;8.35;;
6388;SDS011;3227;42.654;23.360;2023-06-01T03:45:22;20.85;;;8.60;;
6388;SDS011;3227;42.654;23.360;2023-06-01T03:47:49;21.35;;;8.43;;
6388;SDS011;3227;42.654;23.360;2023-06-01T03:50:16;14.52;;;8.13;;
6388;SDS011;3227;42.654;23.360;2023-06-01T03:52:43;14.43;;;7.22;;
6388;SDS011;3227;42.654;23.360;2023-06-01T03:55:10;13.27;;;6.63;;
6388;SDS011;3227;42.654;23.360;2023-06-01T03:57:38;15.05;;;7.03;;
6388;SDS011;3227;42.654;23.360;2023-06-01T04:00:06;23.15;;;7.28;;
6388;SDS011;3227;42.654;23.360;2023-06-01T04:02:45;11.65;;;6.03;;
6388;SDS011;3227;42.654;23.360;2023-06-01T04:05:24;11.90;;;6.53;;
6388;SDS011;3227;42.654;23.360;2023-06-01T04:07:52;14.45;;;6.70;;
6388;SDS011;3227;42.654;23.360;2023-06-01T04:10:20;11.05;;;6.05;;
6388;SDS011;3227;42.654;23.360;2023-06-01T04:12:47;14.95;;;6.47;;
6388;SDS011;3227;42.654;23.360;2023-06-01T04:15:16;16.40;;;6.55;;
6388;SDS011;3227;42.654;23.360;2023-06-01T04:17:45;19.08;;;6.72;;
6388;SDS011;3227;42.654;23.360;2023-06-01T04:20:12;17.27;;;7.18;;
6388;SDS011;3227;42.654;23.360;2023-06-01T04:22:40;12.57;;;6.70;;
6388;SDS011;3227;42.654;23.360;2023-06-01T04:25:08;10.13;;;6.15;;
6388;SDS011;3227;42.654;23.360;2023-06-01T04:27:37;12.18;;;6.00;;
6388;SDS011;3227;42.654;23.360;2023-06-01T04:30:10;12.23;;;6.63;;
6388;SDS011;3227;42.654;23.360;2023-06-01T04:32:37;12.45;;;6.28;;
6388;SDS011;3227;42.654;23.360;2023-06-01T04:35:06;12.88;;;6.93;;
6388;SDS011;3227;42.654;23.360;2023-06-01T04:37:34;10.95;;;6.85;;
6388;SDS011;3227;42.654;23.360;2023-06-01T04:40:02;12.05;;;6.50;;
6388;SDS011;3227;42.654;23.360;2023-06-01T04:42:32;10.80;;;6.43;;
6388;SDS011;3227;42.654;23.360;2023-06-01T04:44:59;19.80;;;6.70;;
6388;SDS011;3227;42.654;23.360;2023-06-01T04:47:26;14.85;;;7.05;;
6388;SDS011;3227;42.654;23.360;2023-06-01T04:49:53;11.27;;;6.43;;
6388;SDS011;3227;42.654;23.360;2023-06-01T04:52:22;8.82;;;5.93;;
6388;SDS011;3227;42.654;23.360;2023-06-01T04:54:49;9.95;;;6.20;;
6388;SDS011;3227;42.654;23.360;2023-06-01T04:57:16;11.10;;;6.13;;
6388;SDS011;3227;42.654;23.360;2023-06-01T04:59:44;11.02;;;6.50;;
6388;SDS011;3227;42.654;23.360;2023-06-01T05:02:10;11.95;;;6.53;;
6388;SDS011;3227;42.654;23.360;2023-06-01T05:04:37;10.43;;;6.53;;
6388;SDS011;3227;42.654;23.360;2023-06-01T05:07:05;10.07;;;5.90;;
6388;SDS011;3227;42.654;23.360;2023-06-01T05:09:33;14.13;;;5.85;;
6388;SDS011;3227;42.654;23.360;2023-06-01T05:12:00;13.30;;;6.95;;
6388;SDS011;3227;42.654;23.360;2023-06-01T05:14:26;12.55;;;6.50;;
6388;SDS011;3227;42.654;23.360;2023-06-01T05:16:53;11.18;;;7.50;;
6388;SDS011;3227;42.654;23.360;2023-06-01T05:19:20;14.27;;;7.97;;
6388;SDS011;3227;42.654;23.360;2023-06-01T05:21:47;14.35;;;7.90;;
6388;SDS011;3227;42.654;23.360;2023-06-01T05:24:14;15.52;;;8.30;;
6388;SDS011;3227;42.654;23.360;2023-06-01T05:26:42;17.27;;;9.88;;
6388;SDS011;3227;42.654;23.360;2023-06-01T05:29:09;13.25;;;8.80;;
6388;SDS011;3227;42.654;23.360;2023-06-01T05:31:36;14.77;;;9.13;;
6388;SDS011;3227;42.654;23.360;2023-06-01T05:34:03;14.65;;;9.50;;
6388;SDS011;3227;42.654;23.360;2023-06-01T05:36:30;15.43;;;9.32;;
6388;SDS011;3227;42.654;23.360;2023-06-01T05:38:58;15.07;;;9.27;;
6388;SDS011;3227;42.654;23.360;2023-06-01T05:41:25;17.48;;;9.32;;
6388;SDS011;3227;42.654;23.360;2023-06-01T05:43:53;13.73;;;8.98;;
6388;SDS011;3227;42.654;23.360;2023-06-01T05:46:20;18.42;;;9.98;;
6388;SDS011;3227;42.654;23.360;2023-06-01T05:48:47;16.73;;;10.25;;
6388;SDS011;3227;42.654;23.360;2023-06-01T05:51:14;15.63;;;9.48;;
6388;SDS011;3227;42.654;23.360;2023-06-01T05:53:41;15.43;;;9.48;;
6388;SDS011;3227;42.654;23.360;2023-06-01T05:56:07;17.23;;;9.70;;
6388;SDS011;3227;42.654;23.360;2023-06-01T05:58:34;21.50;;;12.27;;
6388;SDS011;3227;42.654;23.360;2023-06-01T06:01:02;16.95;;;10.80;;
6388;SDS011;3227;42.654;23.360;2023-06-01T06:03:30;18.27;;;11.02;;
6388;SDS011;3227;42.654;23.360;2023-06-01T06:05:57;17.77;;;9.63;;
6388;SDS011;3227;42.654;23.360;2023-06-01T06:08:23;18.95;;;11.80;;
6388;SDS011;3227;42.654;23.360;2023-06-01T06:10:50;25.75;;;11.50;;
6388;SDS011;3227;42.654;23.360;2023-06-01T06:13:17;20.52;;;11.38;;
6388;SDS011;3227;42.654;23.360;2023-06-01T06:15:44;17.63;;;11.75;;
6388;SDS011;3227;42.654;23.360;2023-06-01T06:18:12;20.63;;;11.85;;
6388;SDS011;3227;42.654;23.360;2023-06-01T06:20:39;16.55;;;11.38;;
6388;SDS011;3227;42.654;23.360;2023-06-01T06:23:06;19.90;;;11.30;;
6388;SDS011;3227;42.654;23.360;2023-06-01T06:25:33;21.02;;;12.18;;
6388;SDS011;3227;42.654;23.360;2023-06-01T06:28:01;19.42;;;11.68;;
6388;SDS011;3227;42.654;23.360;2023-06-01T06:30:29;19.67;;;11.68;;
6388;SDS011;3227;42.654;23.360;2023-06-01T06:32:55;16.75;;;12.02;;
6388;SDS011;3227;42.654;23.360;2023-06-01T06:35:23;21.00;;;11.85;;
6388;SDS011;3227;42.654;23.360;2023-06-01T06:37:50;16.30;;;10.85;;
6388;SDS011;3227;42.654;23.360;2023-06-01T06:40:17;21.27;;;11.57;;
6388;SDS011;3227;42.654;23.360;2023-06-01T06:42:45;17.38;;;11.88;;
6388;SDS011;3227;42.654;23.360;2023-06-01T06:47:59;21.83;;;14.55;;
6388;SDS011;3227;42.654;23.360;2023-06-01T06:50:27;27.73;;;14.15;;
6388;SDS011;3227;42.654;23.360;2023-06-01T06:52:54;21.40;;;13.90;;
6388;SDS011;3227;42.654;23.360;2023-06-01T06:55:21;25.00;;;14.25;;
6388;SDS011;3227;42.654;23.360;2023-06-01T06:57:48;18.88;;;13.55;;
6388;SDS011;3227;42.654;23.360;2023-06-01T07:00:15;23.58;;;14.20;;
6388;SDS011;3227;42.654;23.360;2023-06-01T07:02:43;23.35;;;15.68;;
6388;SDS011;3227;42.654;23.360;2023-06-01T07:05:11;24.70;;;14.75;;
6388;SDS011;3227;42.654;23.360;2023-06-01T07:07:40;20.30;;;14.65;;
6388;SDS011;3227;42.654;23.360;2023-06-01T07:10:07;24.17;;;14.25;;
6388;SDS011;3227;42.654;23.360;2023-06-01T07:12:34;23.60;;;15.95;;
6388;SDS011;3227;42.654;23.360;2023-06-01T07:15:01;26.92;;;17.48;;
6388;SDS011;3227;42.654;23.360;2023-06-01T07:17:28;26.45;;;15.95;;
6388;SDS011;3227;42.654;23.360;2023-06-01T07:19:55;25.05;;;16.67;;
6388;SDS011;3227;42.654;23.360;2023-06-01T07:22:22;27.00;;;15.93;;
6388;SDS011;3227;42.654;23.360;2023-06-01T07:24:50;30.83;;;15.80;;
6388;SDS011;3227;42.654;23.360;2023-06-01T07:27:17;26.08;;;17.17;;
6388;SDS011;3227;42.654;23.360;2023-06-01T07:29:45;24.88;;;15.18;;
6388;SDS011;3227;42.654;23.360;2023-06-01T07:32:12;22.33;;;16.08;;
6388;SDS011;3227;42.654;23.360;2023-06-01T07:34:39;23.45;;;16.00;;
6388;SDS011;3227;42.654;23.360;2023-06-01T07:37:06;34.00;;;19.90;;
6388;SDS011;3227;42.654;23.360;2023-06-01T07:39:33;30.00;;;18.00;;
6388;SDS011;3227;42.654;23.360;2023-06-01T07:42:01;25.98;;;17.75;;
6388;SDS011;3227;42.654;23.360;2023-06-01T07:44:28;27.95;;;18.17;;
6388;SDS011;3227;42.654;23.360;2023-06-01T07:46:54;24.85;;;17.73;;
6388;SDS011;3227;42.654;23.360;2023-06-01T07:49:21;25.92;;;18.00;;
6388;SDS011;3227;42.654;23.360;2023-06-01T07:51:48;26.50;;;17.98;;
6388;SDS011;3227;42.654;23.360;2023-06-01T07:54:18;29.33;;;17.08;;
6388;SDS011;3227;42.654;23.360;2023-06-01T07:56:45;29.75;;;17.33;;
6388;SDS011;3227;42.654;23.360;2023-06-01T07:59:13;27.20;;;17.63;;
6388;SDS011;3227;42.654;23.360;2023-06-01T08:01:40;26.50;;;18.73;;
6388;SDS011;3227;42.654;23.360;2023-06-01T08:04:07;31.38;;;22.50;;
6388;SDS011;3227;42.654;23.360;2023-06-01T08:06:35;32.65;;;22.42;;
6388;SDS011;3227;42.654;23.360;2023-06-01T08:09:03;37.40;;;23.20;;
6388;SDS011;3227;42.654;23.360;2023-06-01T08:11:30;38.15;;;23.02;;
6388;SDS011;3227;42.654;23.360;2023-06-01T08:13:57;32.25;;;23.00;;
6388;SDS011;3227;42.654;23.360;2023-06-01T08:16:29;35.88;;;21.80;;
6388;SDS011;3227;42.654;23.360;2023-06-01T08:18:56;38.00;;;23.98;;
6388;SDS011;3227;42.654;23.360;2023-06-01T08:21:24;41.33;;;24.40;;
6388;SDS011;3227;42.654;23.360;2023-06-01T08:23:51;39.45;;;23.33;;
6388;SDS011;3227;42.654;23.360;2023-06-01T08:26:20;35.38;;;21.55;;
6388;SDS011;3227;42.654;23.360;2023-06-01T08:28:47;32.42;;;20.17;;
6388;SDS011;3227;42.654;23.360;2023-06-01T08:31:17;41.17;;;24.67;;
6388;SDS011;3227;42.654;23.360;2023-06-01T08:33:45;36.53;;;24.23;;
6388;SDS011;3227;42.654;23.360;2023-06-01T08:36:12;39.38;;;24.38;;
6388;SDS011;3227;42.654;23.360;2023-06-01T08:38:39;35.30;;;21.90;;
6388;SDS011;3227;42.654;23.360;2023-06-01T08:41:09;38.10;;;22.92;;
6388;SDS011;3227;42.654;23.360;2023-06-01T08:43:40;29.88;;;22.02;;
6388;SDS011;3227;42.654;23.360;2023-06-01T08:46:09;34.55;;;21.60;;
6388;SDS011;3227;42.654;23.360;2023-06-01T08:48:37;32.83;;;19.85;;
6388;SDS011;3227;42.654;23.360;2023-06-01T08:51:07;29.65;;;19.10;;
6388;SDS011;3227;42.654;23.360;2023-06-01T08:53:34;30.25;;;17.90;;
6388;SDS011;3227;42.654;23.360;2023-06-01T08:56:01;25.80;;;17.90;;
6388;SDS011;3227;42.654;23.360;2023-06-01T08:58:29;29.00;;;19.80;;
6388;SDS011;3227;42.654;23.360;2023-06-01T09:00:56;27.15;;;18.67;;
6388;SDS011;3227;42.654;23.360;2023-06-01T09:03:25;30.90;;;18.77;;
6388;SDS011;3227;42.654;23.360;2023-06-01T09:05:52;28.55;;;17.75;;
6388;SDS011;3227;42.654;23.360;2023-06-01T09:08:20;30.65;;;19.77;;
6388;SDS011;3227;42.654;23.360;2023-06-01T09:10:49;26.90;;;18.75;;
6388;SDS011;3227;42.654;23.360;2023-06-01T09:13:30;31.00;;;18.27;;
6388;SDS011;3227;42.654;23.360;2023-06-01T09:16:03;29.60;;;18.95;;
6388;SDS011;3227;42.654;23.360;2023-06-01T09:18:30;29.30;;;19.17;;
6388;SDS011;3227;42.654;23.360;2023-06-01T09:21:09;28.73;;;18.13;;
6388;SDS011;3227;42.654;23.360;2023-06-01T09:23:38;27.38;;;16.05;;
6388;SDS011;3227;42.654;23.360;2023-06-01T09:26:06;28.55;;;18.88;;
6388;SDS011;3227;42.654;23.360;2023-06-01T09:31:34;26.50;;;16.77;;
6388;SDS011;3227;42.654;23.360;2023-06-01T09:34:03;24.58;;;14.52;;
6388;SDS011;3227;42.654;23.360;2023-06-01T09:36:30;23.23;;;13.32;;
6388;SDS011;3227;42.654;23.360;2023-06-01T09:39:03;25.83;;;15.38;;
6388;SDS011;3227;42.654;23.360;2023-06-01T09:44:13;29.23;;;18.40;;
6388;SDS011;3227;42.654;23.360;2023-06-01T09:46:47;24.38;;;16.48;;
6388;SDS011;3227;42.654;23.360;2023-06-01T09:49:21;24.60;;;15.43;;
6388;SDS011;3227;42.654;23.360;2023-06-01T09:51:50;22.98;;;13.25;;
6388;SDS011;3227;42.654;23.360;2023-06-01T09:54:28;27.83;;;15.30;;
6388;SDS011;3227;42.654;23.360;2023-06-01T09:56:57;20.75;;;14.63;;
6388;SDS011;3227;42.654;23.360;2023-06-01T09:59:25;28.08;;;13.68;;
6388;SDS011;3227;42.654;23.360;2023-06-01T10:01:54;25.67;;;13.52;;
6388;SDS011;3227;42.654;23.360;2023-06-01T10:04:23;16.70;;;9.55;;
6388;SDS011;3227;42.654;23.360;2023-06-01T10:06:52;16.05;;;9.60;;
6388;SDS011;3227;42.654;23.360;2023-06-01T10:09:21;19.80;;;9.05;;
6388;SDS011;3227;42.654;23.360;2023-06-01T10:11:51;20.73;;;10.60;;
6388;SDS011;3227;42.654;23.360;2023-06-01T10:14:19;18.35;;;9.30;;
6388;SDS011;3227;42.654;23.360;2023-06-01T10:16:48;16.05;;;8.60;;
6388;SDS011;3227;42.654;23.360;2023-06-01T10:19:15;15.63;;;8.52;;
6388;SDS011;3227;42.654;23.360;2023-06-01T10:21:43;15.73;;;7.45;;
6388;SDS011;3227;42.654;23.360;2023-06-01T10:24:11;17.65;;;8.40;;
6388;SDS011;3227;42.654;23.360;2023-06-01T10:26:41;12.25;;;7.28;;
6388;SDS011;3227;42.654;23.360;2023-06-01T10:29:14;13.70;;;7.13;;
6388;SDS011;3227;42.654;23.360;2023-06-01T10:31:44;12.00;;;6.72;;
6388;SDS011;3227;42.654;23.360;2023-06-01T10:34:11;13.30;;;6.40;;
6388;SDS011;3227;42.654;23.360;2023-06-01T10:39:41;11.32;;;5.85;;
6388;SDS011;3227;42.654;23.360;2023-06-01T10:48:04;11.40;;;5.82;;
6388;SDS011;3227;42.654;23.360;2023-06-01T10:50:32;10.48;;;6.53;;
6388;SDS011;3227;42.654;23.360;2023-06-01T10:59:10;12.73;;;6.18;;
6388;SDS011;3227;42.654;23.360;2023-06-01T11:01:39;12.65;;;5.65;;
6388;SDS011;3227;42.654;23.360;2023-06-01T11:04:07;15.68;;;5.70;;
6388;SDS011;3227;42.654;23.360;2023-06-01T11:06:36;11.20;;;5.90;;
6388;SDS011;3227;42.654;23.360;2023-06-01T11:09:05;17.00;;;6.45;;
6388;SDS011;3227;42.654;23.360;2023-06-01T11:14:24;10.70;;;5.78;;
6388;SDS011;3227;42.654;23.360;2023-06-01T11:16:53;11.77;;;5.47;;
6388;SDS011;3227;42.654;23.360;2023-06-01T11:19:20;13.02;;;5.32;;
6388;SDS011;3227;42.654;23.360;2023-06-01T11:21:54;12.48;;;5.65;;
6388;SDS011;3227;42.654;23.360;2023-06-01T11:24:24;11.02;;;5.70;;
6388;SDS011;3227;42.654;23.360;2023-06-01T11:26:51;12.45;;;4.95;;
6388;SDS011;3227;42.654;23.360;2023-06-01T11:29:19;12.10;;;4.85;;
6388;SDS011;3227;42.654;23.360;2023-06-01T11:31:49;8.45;;;4.82;;
6388;SDS011;3227;42.654;23.360;2023-06-01T11:34:24;11.15;;;5.13;;
6388;SDS011;3227;42.654;23.360;2023-06-01T11:36:56;11.50;;;5.43;;
6388;SDS011;3227;42.654;23.360;2023-06-01T11:39:24;10.20;;;5.38;;
6388;SDS011;3227;42.654;23.360;2023-06-01T11:42:02;8.25;;;4.70;;
6388;SDS011;3227;42.654;23.360;2023-06-01T11:44:31;14.75;;;4.88;;
6388;SDS011;3227;42.654;23.360;2023-06-01T11:46:58;11.55;;;4.60;;
6388;SDS011;3227;42.654;23.360;2023-06-01T11:49:27;10.27;;;4.32;;
6388;SDS011;3227;42.654;23.360;2023-06-01T11:51:54;10.38;;;4.70;;
6388;SDS011;3227;42.654;23.360;2023-06-01T11:54:26;13.82;;;6.03;;
6388;SDS011;3227;42.654;23.360;2023-06-01T11:56:54;13.95;;;5.45;;
6388;SDS011;3227;42.654;23.360;2023-06-01T11:59:22;11.82;;;5.60;;
6388;SDS011;3227;42.654;23.360;2023-06-01T12:01:49;13.43;;;6.05;;
6388;SDS011;3227;42.654;23.360;2023-06-01T12:04:19;10.40;;;5.70;;
6388;SDS011;3227;42.654;23.360;2023-06-01T12:06:49;10.63;;;5.10;;
6388;SDS011;3227;42.654;23.360;2023-06-01T12:09:16;11.50;;;6.60;;
6388;SDS011;3227;42.654;23.360;2023-06-01T12:11:45;11.75;;;5.80;;
6388;SDS011;3227;42.654;23.360;2023-06-01T12:14:13;11.45;;;5.88;;
6388;SDS011;3227;42.654;23.360;2023-06-01T12:16:56;13.02;;;6.03;;
6388;SDS011;3227;42.654;23.360;2023-06-01T12:19:24;14.88;;;6.20;;
6388;SDS011;3227;42.654;23.360;2023-06-01T12:21:53;13.18;;;6.72;;
6388;SDS011;3227;42.654;23.360;2023-06-01T12:24:27;9.80;;;6.22;;
6388;SDS011;3227;42.654;23.360;2023-06-01T12:26:56;11.88;;;6.15;;
6388;SDS011;3227;42.654;23.360;2023-06-01T12:29:36;9.82;;;5.65;;
6388;SDS011;3227;42.654;23.360;2023-06-01T12:32:04;10.45;;;5.03;;
6388;SDS011;3227;42.654;23.360;2023-06-01T12:34:32;13.63;;;5.70;;
6388;SDS011;3227;42.654;23.360;2023-06-01T12:37:09;11.35;;;5.40;;
6388;SDS011;3227;42.654;23.360;2023-06-01T12:39:37;11.38;;;5.60;;
6388;SDS011;3227;42.654;23.360;2023-06-01T12:42:06;10.77;;;5.35;;
6388;SDS011;3227;42.654;23.360;2023-06-01T12:44:33;11.15;;;5.45;;
6388;SDS011;3227;42.654;23.360;2023-06-01T12:47:00;15.13;;;6.15;;
6388;SDS011;3227;42.654;23.360;2023-06-01T12:49:27;11.10;;;5.68;;
6388;SDS011;3227;42.654;23.360;2023-06-01T12:51:54;11.60;;;6.00;;
6388;SDS011;3227;42.654;23.360;2023-06-01T12:54:23;10.10;;;5.25;;
6388;SDS011;3227;42.654;23.360;2023-06-01T12:56:49;14.88;;;5.90;;
6388;SDS011;3227;42.654;23.360;2023-06-01T12:59:17;9.75;;;5.80;;
6388;SDS011;3227;42.654;23.360;2023-06-01T13:01:44;12.45;;;6.05;;
6388;SDS011;3227;42.654;23.360;2023-06-01T13:04:11;13.95;;;6.68;;
6388;SDS011;3227;42.654;23.360;2023-06-01T13:06:38;13.60;;;5.90;;
6388;SDS011;3227;42.654;23.360;2023-06-01T13:09:05;9.57;;;6.03;;
6388;SDS011;3227;42.654;23.360;2023-06-01T13:11:34;11.32;;;6.30;;
6388;SDS011;3227;42.654;23.360;2023-06-01T13:14:01;13.27;;;6.22;;
6388;SDS011;3227;42.654;23.360;2023-06-01T13:16:28;8.73;;;5.57;;
6388;SDS011;3227;42.654;23.360;2023-06-01T13:18:55;10.77;;;4.22;;
6388;SDS011;3227;42.654;23.360;2023-06-01T13:21:22;10.65;;;4.22;;
6388;SDS011;3227;42.654;23.360;2023-06-01T13:23:49;8.20;;;3.90;;
6388;SDS011;3227;42.654;23.360;2023-06-01T13:26:16;7.90;;;4.40;;
6388;SDS011;3227;42.654;23.360;2023-06-01T13:28:44;7.38;;;3.85;;
6388;SDS011;3227;42.654;23.360;2023-06-01T13:31:11;5.90;;;3.33;;
6388;SDS011;3227;42.654;23.360;2023-06-01T13:33:38;7.72;;;3.55;;
6388;SDS011;3227;42.654;23.360;2023-06-01T13:36:05;7.47;;;3.65;;
6388;SDS011;3227;42.654;23.360;2023-06-01T13:38:32;9.20;;;3.53;;
6388;SDS011;3227;42.654;23.360;2023-06-01T13:40:58;9.48;;;3.40;;
6388;SDS011;3227;42.654;23.360;2023-06-01T13:43:25;5.38;;;3.22;;
6388;SDS011;3227;42.654;23.360;2023-06-01T13:45:53;8.32;;;3.47;;
6388;SDS011;3227;42.654;23.360;2023-06-01T13:48:20;8.55;;;4.07;;
6388;SDS011;3227;42.654;23.360;2023-06-01T13:50:47;6.93;;;3.78;;
6388;SDS011;3227;42.654;23.360;2023-06-01T13:53:14;6.68;;;3.50;;
6388;SDS011;3227;42.654;23.360;2023-06-01T13:55:41;8.98;;;3.72;;
6388;SDS011;3227;42.654;23.360;2023-06-01T13:58:07;7.13;;;3.55;;
6388;SDS011;3227;42.654;23.360;2023-06-01T14:00:34;6.97;;;3.60;;
6388;SDS011;3227;42.654;23.360;2023-06-01T14:03:03;9.50;;;4.40;;
6388;SDS011;3227;42.654;23.360;2023-06-01T14:05:30;10.30;;;5.00;;
6388;SDS011;3227;42.654;23.360;2023-06-01T14:07:56;8.07;;;4.35;;
6388;SDS011;3227;42.654;23.360;2023-06-01T14:10:23;10.00;;;4.22;;
6388;SDS011;3227;42.654;23.360;2023-06-01T14:12:50;6.45;;;4.18;;
6388;SDS011;3227;42.654;23.360;2023-06-01T14:15:17;7.40;;;4.38;;
6388;SDS011;3227;42.654;23.360;2023-06-01T14:17:44;7.10;;;4.25;;
6388;SDS011;3227;42.654;23.360;2023-06-01T14:20:12;7.85;;;4.75;;
6388;SDS011;3227;42.654;23.360;2023-06-01T14:22:38;7.72;;;4.63;;
6388;SDS011;3227;42.654;23.360;2023-06-01T14:25:06;10.35;;;5.38;;
6388;SDS011;3227;42.654;23.360;2023-06-01T14:27:33;7.85;;;4.57;;
6388;SDS011;3227;42.654;23.360;2023-06-01T14:30:01;8.95;;;4.88;;
6388;SDS011;3227;42.654;23.360;2023-06-01T14:32:28;8.00;;;4.30;;
6388;SDS011;3227;42.654;23.360;2023-06-01T14:34:56;9.10;;;4.70;;
6388;SDS011;3227;42.654;23.360;2023-06-01T14:37:24;10.40;;;5.13;;
6388;SDS011;3227;42.654;23.360;2023-06-01T14:39:51;12.65;;;4.63;;
6388;SDS011;3227;42.654;23.360;2023-06-01T14:42:17;8.38;;;5.07;;
6388;SDS011;3227;42.654;23.360;2023-06-01T14:44:44;11.52;;;5.10;;
6388;SDS011;3227;42.654;23.360;2023-06-01T14:47:11;11.98;;;5.88;;
6388;SDS011;3227;42.654;23.360;2023-06-01T14:49:39;9.50;;;5.43;;
6388;SDS011;3227;42.654;23.360;2023-06-01T14:52:06;12.23;;;5.80;;
6388;SDS011;3227;42.654;23.360;2023-06-01T14:54:34;9.27;;;4.82;;
6388;SDS011;3227;42.654;23.360;2023-06-01T14:57:01;12.00;;;5.55;;
6388;SDS011;3227;42.654;23.360;2023-06-01T14:59:28;9.10;;;5.18;;
6388;SDS011;3227;42.654;23.360;2023-06-01T15:01:55;8.10;;;4.95;;
6388;SDS011;3227;42.654;23.360;2023-06-01T15:04:21;12.63;;;5.85;;
6388;SDS011;3227;42.654;23.360;2023-06-01T15:06:49;11.55;;;6.20;;
6388;SDS011;3227;42.654;23.360;2023-06-01T15:09:16;10.45;;;6.22;;
6388;SDS011;3227;42.654;23.360;2023-06-01T15:11:44;10.20;;;6.25;;
6388;SDS011;3227;42.654;23.360;2023-06-01T15:14:11;9.73;;;5.63;;
6388;SDS011;3227;42.654;23.360;2023-06-01T15:16:38;9.05;;;5.80;;
6388;SDS011;3227;42.654;23.360;2023-06-01T15:19:05;8.77;;;5.82;;